Terminal Aerodrome Forecast
Issued by NWS

Home | Current Version | Previous Version | Text Only | Print | Product List | Glossary On
Versions: 1 2 3 4 5 6 7 8 9 10 11 12 13
659
FTUS43 KAPX 181120
TAFAPN
TAF
KAPN 181120Z 1812/1912 22006KT P6SM SKC
     FM181500 21010G18KT P6SM SKC
     FM181700 21013G26KT P6SM SKC
     FM190700 24008KT P6SM SCT200
     FM190900 24008KT P6SM SCT040=

USA.gov is the U.S. government's official web portal to all federal, state and local government web resources and services.